sensor_id;sensor_type;location;lat;lon;timestamp;temperature;humidity
67529;DHT22;54366;51.980;5.856;2022-12-18T00:01:35;-1.40;77.80
67529;DHT22;54366;51.980;5.856;2022-12-18T00:04:06;-1.50;77.90
67529;DHT22;54366;51.980;5.856;2022-12-18T00:06:35;-1.50;78.00
67529;DHT22;54366;51.980;5.856;2022-12-18T00:09:03;-1.50;78.20
67529;DHT22;54366;51.980;5.856;2022-12-18T00:11:30;-1.60;78.10
67529;DHT22;54366;51.980;5.856;2022-12-18T00:13:58;-1.60;78.30
67529;DHT22;54366;51.980;5.856;2022-12-18T00:16:26;-1.60;78.30
67529;DHT22;54366;51.980;5.856;2022-12-18T00:18:54;-1.60;78.80
67529;DHT22;54366;51.980;5.856;2022-12-18T00:21:22;-1.60;78.20
67529;DHT22;54366;51.980;5.856;2022-12-18T00:23:49;-1.60;78.20
67529;DHT22;54366;51.980;5.856;2022-12-18T00:26:18;-1.60;78.10
67529;DHT22;54366;51.980;5.856;2022-12-18T00:28:46;-1.70;78.20
67529;DHT22;54366;51.980;5.856;2022-12-18T00:31:15;-1.70;78.10
67529;DHT22;54366;51.980;5.856;2022-12-18T00:33:42;-1.70;78.20
67529;DHT22;54366;51.980;5.856;2022-12-18T00:36:20;-1.70;78.10
67529;DHT22;54366;51.980;5.856;2022-12-18T00:38:47;-1.70;78.00
67529;DHT22;54366;51.980;5.856;2022-12-18T00:41:18;-1.70;78.10
67529;DHT22;54366;51.980;5.856;2022-12-18T00:44:05;-1.70;78.20
67529;DHT22;54366;51.980;5.856;2022-12-18T00:46:32;-1.80;78.20
67529;DHT22;54366;51.980;5.856;2022-12-18T00:48:59;-1.70;78.20
67529;DHT22;54366;51.980;5.856;2022-12-18T00:51:25;-1.80;78.20
67529;DHT22;54366;51.980;5.856;2022-12-18T00:53:53;-1.80;78.00
67529;DHT22;54366;51.980;5.856;2022-12-18T00:56:19;-1.80;78.10
67529;DHT22;54366;51.980;5.856;2022-12-18T00:58:48;-1.90;78.00
67529;DHT22;54366;51.980;5.856;2022-12-18T01:01:15;-1.90;78.10
67529;DHT22;54366;51.980;5.856;2022-12-18T01:03:42;-1.90;78.20
67529;DHT22;54366;51.980;5.856;2022-12-18T01:06:11;-1.80;78.20
67529;DHT22;54366;51.980;5.856;2022-12-18T01:08:38;-1.90;78.10
67529;DHT22;54366;51.980;5.856;2022-12-18T01:11:16;-1.90;78.20
67529;DHT22;54366;51.980;5.856;2022-12-18T01:13:43;-1.90;78.10
67529;DHT22;54366;51.980;5.856;2022-12-18T01:16:12;-2.00;78.00
67529;DHT22;54366;51.980;5.856;2022-12-18T01:18:39;-2.00;78.00
67529;DHT22;54366;51.980;5.856;2022-12-18T01:21:07;-2.00;78.00
67529;DHT22;54366;51.980;5.856;2022-12-18T01:23:36;-2.00;77.90
67529;DHT22;54366;51.980;5.856;2022-12-18T01:26:12;-2.00;78.00
67529;DHT22;54366;51.980;5.856;2022-12-18T01:28:39;-2.00;78.00
67529;DHT22;54366;51.980;5.856;2022-12-18T01:31:32;-2.00;78.00
67529;DHT22;54366;51.980;5.856;2022-12-18T01:34:03;-2.00;78.00
67529;DHT22;54366;51.980;5.856;2022-12-18T01:36:32;-2.10;77.60
67529;DHT22;54366;51.980;5.856;2022-12-18T01:39:00;-2.10;77.80
67529;DHT22;54366;51.980;5.856;2022-12-18T01:41:29;-2.10;77.90
67529;DHT22;54366;51.980;5.856;2022-12-18T01:50:28;-2.20;77.80
67529;DHT22;54366;51.980;5.856;2022-12-18T01:53:19;-2.10;77.90
67529;DHT22;54366;51.980;5.856;2022-12-18T01:55:55;-2.20;78.00
67529;DHT22;54366;51.980;5.856;2022-12-18T01:59:06;-2.20;78.10
67529;DHT22;54366;51.980;5.856;2022-12-18T02:01:32;-2.20;77.90
67529;DHT22;54366;51.980;5.856;2022-12-18T02:04:22;-2.20;77.90
67529;DHT22;54366;51.980;5.856;2022-12-18T02:07:06;-2.20;77.90
67529;DHT22;54366;51.980;5.856;2022-12-18T02:09:40;-2.20;78.00
67529;DHT22;54366;51.980;5.856;2022-12-18T02:12:20;-2.20;78.00
67529;DHT22;54366;51.980;5.856;2022-12-18T02:15:08;-2.20;78.00
67529;DHT22;54366;51.980;5.856;2022-12-18T02:17:52;-2.20;77.90
67529;DHT22;54366;51.980;5.856;2022-12-18T02:20:59;-2.20;77.80
67529;DHT22;54366;51.980;5.856;2022-12-18T02:23:56;-2.30;77.70
67529;DHT22;54366;51.980;5.856;2022-12-18T02:26:38;-2.30;77.70
67529;DHT22;54366;51.980;5.856;2022-12-18T02:32:20;-2.30;77.80
67529;DHT22;54366;51.980;5.856;2022-12-18T02:34:48;-2.30;78.10
67529;DHT22;54366;51.980;5.856;2022-12-18T02:37:18;-2.40;77.60
67529;DHT22;54366;51.980;5.856;2022-12-18T02:39:49;-2.40;77.60
67529;DHT22;54366;51.980;5.856;2022-12-18T02:42:16;-2.40;77.40
67529;DHT22;54366;51.980;5.856;2022-12-18T02:44:48;-2.40;77.40
67529;DHT22;54366;51.980;5.856;2022-12-18T02:47:22;-2.50;77.40
67529;DHT22;54366;51.980;5.856;2022-12-18T02:50:18;-2.50;77.20
67529;DHT22;54366;51.980;5.856;2022-12-18T02:53:22;-2.50;77.30
67529;DHT22;54366;51.980;5.856;2022-12-18T02:56:26;-2.50;77.30
67529;DHT22;54366;51.980;5.856;2022-12-18T02:59:04;-2.50;77.30
67529;DHT22;54366;51.980;5.856;2022-12-18T03:01:58;-2.50;77.40
67529;DHT22;54366;51.980;5.856;2022-12-18T03:04:45;-2.60;78.00
67529;DHT22;54366;51.980;5.856;2022-12-18T03:07:21;-2.60;77.60
67529;DHT22;54366;51.980;5.856;2022-12-18T03:09:52;-2.50;77.60
67529;DHT22;54366;51.980;5.856;2022-12-18T03:12:35;-2.50;77.70
67529;DHT22;54366;51.980;5.856;2022-12-18T03:15:17;-2.60;77.60
67529;DHT22;54366;51.980;5.856;2022-12-18T03:17:55;-2.50;77.70
67529;DHT22;54366;51.980;5.856;2022-12-18T03:20:27;-2.50;77.80
67529;DHT22;54366;51.980;5.856;2022-12-18T03:23:05;-2.50;77.60
67529;DHT22;54366;51.980;5.856;2022-12-18T03:25:39;-2.60;77.40
67529;DHT22;54366;51.980;5.856;2022-12-18T03:28:08;-2.50;77.40
67529;DHT22;54366;51.980;5.856;2022-12-18T03:30:38;-2.50;77.30
67529;DHT22;54366;51.980;5.856;2022-12-18T03:33:10;-2.50;77.30
67529;DHT22;54366;51.980;5.856;2022-12-18T03:35:43;-2.60;77.40
67529;DHT22;54366;51.980;5.856;2022-12-18T03:38:11;-2.60;77.50
67529;DHT22;54366;51.980;5.856;2022-12-18T03:41:15;-2.60;77.50
67529;DHT22;54366;51.980;5.856;2022-12-18T03:44:10;-2.60;77.60
67529;DHT22;54366;51.980;5.856;2022-12-18T03:46:56;-2.60;77.30
67529;DHT22;54366;51.980;5.856;2022-12-18T03:50:35;-2.60;77.40
67529;DHT22;54366;51.980;5.856;2022-12-18T03:52:54;-2.60;77.40
67529;DHT22;54366;51.980;5.856;2022-12-18T03:55:24;-2.70;77.40
67529;DHT22;54366;51.980;5.856;2022-12-18T03:57:58;-2.60;77.50
67529;DHT22;54366;51.980;5.856;2022-12-18T04:00:31;-2.70;77.50
67529;DHT22;54366;51.980;5.856;2022-12-18T04:03:06;-2.70;77.60
67529;DHT22;54366;51.980;5.856;2022-12-18T04:05:43;-2.70;77.60
67529;DHT22;54366;51.980;5.856;2022-12-18T04:08:10;-2.70;77.50
67529;DHT22;54366;51.980;5.856;2022-12-18T04:10:41;-2.70;77.50
67529;DHT22;54366;51.980;5.856;2022-12-18T04:13:09;-2.70;77.50
67529;DHT22;54366;51.980;5.856;2022-12-18T04:15:36;-2.70;77.60
67529;DHT22;54366;51.980;5.856;2022-12-18T04:18:05;-2.70;77.60
67529;DHT22;54366;51.980;5.856;2022-12-18T04:20:43;-2.70;77.70
67529;DHT22;54366;51.980;5.856;2022-12-18T04:23:11;-2.70;77.60
67529;DHT22;54366;51.980;5.856;2022-12-18T04:25:39;-2.70;78.20
67529;DHT22;54366;51.980;5.856;2022-12-18T04:28:09;-2.70;77.60
67529;DHT22;54366;51.980;5.856;2022-12-18T04:30:37;-2.70;77.50
67529;DHT22;54366;51.980;5.856;2022-12-18T04:33:11;-2.70;77.40
67529;DHT22;54366;51.980;5.856;2022-12-18T04:35:41;-2.70;77.50
67529;DHT22;54366;51.980;5.856;2022-12-18T04:38:08;-2.70;77.60
67529;DHT22;54366;51.980;5.856;2022-12-18T04:40:35;-2.70;77.60
67529;DHT22;54366;51.980;5.856;2022-12-18T04:43:04;-2.80;77.40
67529;DHT22;54366;51.980;5.856;2022-12-18T04:45:31;-2.70;77.50
67529;DHT22;54366;51.980;5.856;2022-12-18T04:47:58;-2.70;77.40
67529;DHT22;54366;51.980;5.856;2022-12-18T04:50:25;-2.70;77.60
67529;DHT22;54366;51.980;5.856;2022-12-18T04:52:51;-2.70;77.80
67529;DHT22;54366;51.980;5.856;2022-12-18T04:55:17;-2.70;77.60
67529;DHT22;54366;51.980;5.856;2022-12-18T04:57:44;-2.70;77.60
67529;DHT22;54366;51.980;5.856;2022-12-18T05:00:10;-2.70;77.50
67529;DHT22;54366;51.980;5.856;2022-12-18T05:02:37;-2.70;78.00
67529;DHT22;54366;51.980;5.856;2022-12-18T05:05:04;-2.70;77.50
67529;DHT22;54366;51.980;5.856;2022-12-18T05:07:30;-2.70;77.40
67529;DHT22;54366;51.980;5.856;2022-12-18T05:09:57;-2.70;77.50
67529;DHT22;54366;51.980;5.856;2022-12-18T05:12:23;-2.70;77.40
67529;DHT22;54366;51.980;5.856;2022-12-18T05:14:49;-2.70;77.50
67529;DHT22;54366;51.980;5.856;2022-12-18T05:17:16;-2.70;77.40
67529;DHT22;54366;51.980;5.856;2022-12-18T05:19:42;-2.80;77.40
67529;DHT22;54366;51.980;5.856;2022-12-18T05:22:08;-2.70;77.50
67529;DHT22;54366;51.980;5.856;2022-12-18T05:24:35;-2.80;77.30
67529;DHT22;54366;51.980;5.856;2022-12-18T05:27:01;-2.80;77.20
67529;DHT22;54366;51.980;5.856;2022-12-18T05:29:27;-2.80;77.30
67529;DHT22;54366;51.980;5.856;2022-12-18T05:31:54;-2.80;77.20
67529;DHT22;54366;51.980;5.856;2022-12-18T05:34:20;-2.80;77.10
67529;DHT22;54366;51.980;5.856;2022-12-18T05:36:46;-2.80;77.30
67529;DHT22;54366;51.980;5.856;2022-12-18T05:39:13;-2.80;77.20
67529;DHT22;54366;51.980;5.856;2022-12-18T05:41:39;-2.90;77.10
67529;DHT22;54366;51.980;5.856;2022-12-18T05:44:05;-2.90;77.20
67529;DHT22;54366;51.980;5.856;2022-12-18T05:46:31;-2.90;77.30
67529;DHT22;54366;51.980;5.856;2022-12-18T05:49:01;-2.90;77.20
67529;DHT22;54366;51.980;5.856;2022-12-18T05:51:27;-2.80;77.40
67529;DHT22;54366;51.980;5.856;2022-12-18T05:53:54;-2.80;77.30
67529;DHT22;54366;51.980;5.856;2022-12-18T05:56:22;-3.00;77.40
67529;DHT22;54366;51.980;5.856;2022-12-18T05:58:51;-2.90;77.50
67529;DHT22;54366;51.980;5.856;2022-12-18T06:01:22;-2.90;77.50
67529;DHT22;54366;51.980;5.856;2022-12-18T06:03:49;-2.90;77.50
67529;DHT22;54366;51.980;5.856;2022-12-18T06:06:26;-2.90;77.40
67529;DHT22;54366;51.980;5.856;2022-12-18T06:08:54;-2.90;77.50
67529;DHT22;54366;51.980;5.856;2022-12-18T06:11:23;-2.90;77.40
67529;DHT22;54366;51.980;5.856;2022-12-18T06:13:50;-2.90;77.50
67529;DHT22;54366;51.980;5.856;2022-12-18T06:16:17;-2.90;77.50
67529;DHT22;54366;51.980;5.856;2022-12-18T06:18:43;-2.90;77.50
67529;DHT22;54366;51.980;5.856;2022-12-18T06:21:10;-2.80;77.40
67529;DHT22;54366;51.980;5.856;2022-12-18T06:23:36;-2.80;77.40
67529;DHT22;54366;51.980;5.856;2022-12-18T06:26:10;-2.90;77.40
67529;DHT22;54366;51.980;5.856;2022-12-18T06:28:37;-2.90;77.40
67529;DHT22;54366;51.980;5.856;2022-12-18T06:31:05;-2.80;77.50
67529;DHT22;54366;51.980;5.856;2022-12-18T06:33:32;-2.90;77.50
67529;DHT22;54366;51.980;5.856;2022-12-18T06:36:07;-2.80;77.60
67529;DHT22;54366;51.980;5.856;2022-12-18T06:38:36;-2.90;77.50
67529;DHT22;54366;51.980;5.856;2022-12-18T06:41:10;-2.90;77.50
67529;DHT22;54366;51.980;5.856;2022-12-18T06:43:37;-2.90;77.50
67529;DHT22;54366;51.980;5.856;2022-12-18T06:46:04;-2.80;77.50
67529;DHT22;54366;51.980;5.856;2022-12-18T06:48:32;-2.80;77.60
67529;DHT22;54366;51.980;5.856;2022-12-18T06:50:58;-2.80;77.70
67529;DHT22;54366;51.980;5.856;2022-12-18T06:53:25;-2.80;77.60
67529;DHT22;54366;51.980;5.856;2022-12-18T06:55:51;-2.80;77.60
67529;DHT22;54366;51.980;5.856;2022-12-18T06:58:18;-2.80;77.50
67529;DHT22;54366;51.980;5.856;2022-12-18T07:00:44;-2.70;77.50
67529;DHT22;54366;51.980;5.856;2022-12-18T07:03:10;-2.70;77.60
67529;DHT22;54366;51.980;5.856;2022-12-18T07:05:40;-2.70;77.50
67529;DHT22;54366;51.980;5.856;2022-12-18T07:08:07;-2.70;77.40
67529;DHT22;54366;51.980;5.856;2022-12-18T07:10:33;-2.80;77.30
67529;DHT22;54366;51.980;5.856;2022-12-18T07:12:59;-2.80;77.30
67529;DHT22;54366;51.980;5.856;2022-12-18T07:15:25;-2.80;77.30
67529;DHT22;54366;51.980;5.856;2022-12-18T07:17:52;-2.70;77.40
67529;DHT22;54366;51.980;5.856;2022-12-18T07:20:18;-2.70;77.40
67529;DHT22;54366;51.980;5.856;2022-12-18T07:22:44;-2.70;77.40
67529;DHT22;54366;51.980;5.856;2022-12-18T07:25:10;-2.70;77.40
67529;DHT22;54366;51.980;5.856;2022-12-18T07:27:37;-2.70;77.30
67529;DHT22;54366;51.980;5.856;2022-12-18T07:30:03;-2.70;77.40
67529;DHT22;54366;51.980;5.856;2022-12-18T07:32:30;-2.60;77.40
67529;DHT22;54366;51.980;5.856;2022-12-18T07:34:56;-2.60;77.40
67529;DHT22;54366;51.980;5.856;2022-12-18T07:37:23;-2.60;77.30
67529;DHT22;54366;51.980;5.856;2022-12-18T07:39:49;-2.60;77.40
67529;DHT22;54366;51.980;5.856;2022-12-18T07:42:15;-2.60;77.20
67529;DHT22;54366;51.980;5.856;2022-12-18T07:45:00;-2.60;77.40
67529;DHT22;54366;51.980;5.856;2022-12-18T07:47:29;-2.60;77.20
67529;DHT22;54366;51.980;5.856;2022-12-18T07:49:56;-2.50;77.30
67529;DHT22;54366;51.980;5.856;2022-12-18T07:52:22;-2.50;77.30
67529;DHT22;54366;51.980;5.856;2022-12-18T07:54:48;-2.50;77.30
67529;DHT22;54366;51.980;5.856;2022-12-18T07:57:16;-2.50;77.20
67529;DHT22;54366;51.980;5.856;2022-12-18T07:59:43;-2.50;77.20
67529;DHT22;54366;51.980;5.856;2022-12-18T08:02:09;-2.50;77.10
67529;DHT22;54366;51.980;5.856;2022-12-18T08:04:35;-2.50;77.20
67529;DHT22;54366;51.980;5.856;2022-12-18T08:07:02;-2.40;77.30
67529;DHT22;54366;51.980;5.856;2022-12-18T08:09:28;-2.40;77.20
67529;DHT22;54366;51.980;5.856;2022-12-18T08:11:54;-2.40;77.20
67529;DHT22;54366;51.980;5.856;2022-12-18T08:14:21;-2.40;77.20
67529;DHT22;54366;51.980;5.856;2022-12-18T08:16:47;-2.30;77.00
67529;DHT22;54366;51.980;5.856;2022-12-18T08:19:13;-2.30;76.90
67529;DHT22;54366;51.980;5.856;2022-12-18T08:21:41;-2.30;76.90
67529;DHT22;54366;51.980;5.856;2022-12-18T08:24:09;-2.20;77.00
67529;DHT22;54366;51.980;5.856;2022-12-18T08:26:35;-2.20;76.80
67529;DHT22;54366;51.980;5.856;2022-12-18T08:29:01;-2.20;76.90
67529;DHT22;54366;51.980;5.856;2022-12-18T08:31:29;-2.20;76.90
67529;DHT22;54366;51.980;5.856;2022-12-18T08:33:56;-2.10;77.00
67529;DHT22;54366;51.980;5.856;2022-12-18T08:36:23;-2.10;76.90
67529;DHT22;54366;51.980;5.856;2022-12-18T08:38:50;-2.10;76.90
67529;DHT22;54366;51.980;5.856;2022-12-18T08:41:17;-2.00;77.00
67529;DHT22;54366;51.980;5.856;2022-12-18T08:43:44;-2.00;76.80
67529;DHT22;54366;51.980;5.856;2022-12-18T08:46:42;-2.00;76.90
67529;DHT22;54366;51.980;5.856;2022-12-18T08:49:10;-1.90;76.90
67529;DHT22;54366;51.980;5.856;2022-12-18T08:51:37;-1.90;76.90
67529;DHT22;54366;51.980;5.856;2022-12-18T08:54:04;-1.80;77.00
67529;DHT22;54366;51.980;5.856;2022-12-18T08:56:31;-1.80;76.90
67529;DHT22;54366;51.980;5.856;2022-12-18T08:58:57;-1.70;76.90
67529;DHT22;54366;51.980;5.856;2022-12-18T09:01:24;-1.70;76.70
67529;DHT22;54366;51.980;5.856;2022-12-18T09:03:50;-1.70;76.90
67529;DHT22;54366;51.980;5.856;2022-12-18T09:06:18;-1.70;76.60
67529;DHT22;54366;51.980;5.856;2022-12-18T09:08:45;-1.60;76.40
67529;DHT22;54366;51.980;5.856;2022-12-18T09:11:14;-1.60;76.40
67529;DHT22;54366;51.980;5.856;2022-12-18T09:13:40;-1.50;76.60
67529;DHT22;54366;51.980;5.856;2022-12-18T09:16:07;-1.50;76.70
67529;DHT22;54366;51.980;5.856;2022-12-18T09:18:33;-1.40;76.70
67529;DHT22;54366;51.980;5.856;2022-12-18T09:20:59;-1.40;76.70
67529;DHT22;54366;51.980;5.856;2022-12-18T09:23:26;-1.30;76.70
67529;DHT22;54366;51.980;5.856;2022-12-18T09:25:58;-1.20;76.70
67529;DHT22;54366;51.980;5.856;2022-12-18T09:28:25;-1.20;76.70
67529;DHT22;54366;51.980;5.856;2022-12-18T09:30:51;-1.20;76.50
67529;DHT22;54366;51.980;5.856;2022-12-18T09:33:18;-1.10;76.40
67529;DHT22;54366;51.980;5.856;2022-12-18T09:35:45;-1.00;76.20
67529;DHT22;54366;51.980;5.856;2022-12-18T09:38:14;-1.00;75.80
67529;DHT22;54366;51.980;5.856;2022-12-18T09:40:48;-0.90;75.80
67529;DHT22;54366;51.980;5.856;2022-12-18T09:43:28;-0.80;75.40
67529;DHT22;54366;51.980;5.856;2022-12-18T09:46:00;-0.80;75.20
67529;DHT22;54366;51.980;5.856;2022-12-18T09:48:32;-0.80;74.90
67529;DHT22;54366;51.980;5.856;2022-12-18T09:51:03;-0.80;74.50
67529;DHT22;54366;51.980;5.856;2022-12-18T09:53:35;-0.70;74.90
67529;DHT22;54366;51.980;5.856;2022-12-18T09:56:04;-0.60;73.90
67529;DHT22;54366;51.980;5.856;2022-12-18T09:58:41;-0.60;74.40
67529;DHT22;54366;51.980;5.856;2022-12-18T10:01:13;-0.60;74.50
67529;DHT22;54366;51.980;5.856;2022-12-18T10:03:40;-0.50;75.20
67529;DHT22;54366;51.980;5.856;2022-12-18T10:06:13;-0.50;74.20
67529;DHT22;54366;51.980;5.856;2022-12-18T10:08:51;-0.50;73.60
67529;DHT22;54366;51.980;5.856;2022-12-18T10:15:01;-0.40;73.60
67529;DHT22;54366;51.980;5.856;2022-12-18T10:17:55;-0.40;73.40
67529;DHT22;54366;51.980;5.856;2022-12-18T10:23:38;-0.30;73.00
67529;DHT22;54366;51.980;5.856;2022-12-18T10:26:07;-0.20;72.70
67529;DHT22;54366;51.980;5.856;2022-12-18T10:28:36;-0.20;73.10
67529;DHT22;54366;51.980;5.856;2022-12-18T10:31:19;-0.20;72.60
67529;DHT22;54366;51.980;5.856;2022-12-18T10:33:45;-0.20;72.70
67529;DHT22;54366;51.980;5.856;2022-12-18T10:36:12;-0.10;72.70
67529;DHT22;54366;51.980;5.856;2022-12-18T10:38:38;0.00;72.70
67529;DHT22;54366;51.980;5.856;2022-12-18T10:44:31;0.00;72.50
67529;DHT22;54366;51.980;5.856;2022-12-18T10:47:05;0.10;72.50
67529;DHT22;54366;51.980;5.856;2022-12-18T10:49:33;0.10;71.40
67529;DHT22;54366;51.980;5.856;2022-12-18T10:52:15;0.10;72.00
67529;DHT22;54366;51.980;5.856;2022-12-18T10:54:52;0.20;72.30
67529;DHT22;54366;51.980;5.856;2022-12-18T10:57:32;0.20;72.40
67529;DHT22;54366;51.980;5.856;2022-12-18T11:00:18;0.20;72.50
67529;DHT22;54366;51.980;5.856;2022-12-18T11:02:46;0.30;71.90
67529;DHT22;54366;51.980;5.856;2022-12-18T11:05:30;0.30;71.50
67529;DHT22;54366;51.980;5.856;2022-12-18T11:07:58;0.30;70.80
67529;DHT22;54366;51.980;5.856;2022-12-18T11:10:39;0.30;70.90
67529;DHT22;54366;51.980;5.856;2022-12-18T11:13:17;0.30;71.40
67529;DHT22;54366;51.980;5.856;2022-12-18T11:15:45;0.40;71.00
67529;DHT22;54366;51.980;5.856;2022-12-18T11:18:40;0.40;71.10
67529;DHT22;54366;51.980;5.856;2022-12-18T11:21:11;0.40;71.40
67529;DHT22;54366;51.980;5.856;2022-12-18T11:23:52;0.50;71.40
67529;DHT22;54366;51.980;5.856;2022-12-18T11:26:20;0.50;71.10
67529;DHT22;54366;51.980;5.856;2022-12-18T11:28:52;0.50;71.10
67529;DHT22;54366;51.980;5.856;2022-12-18T11:31:33;0.50;71.30
67529;DHT22;54366;51.980;5.856;2022-12-18T11:34:16;0.60;71.00
67529;DHT22;54366;51.980;5.856;2022-12-18T11:36:46;0.70;69.40
67529;DHT22;54366;51.980;5.856;2022-12-18T11:42:24;0.70;70.10
67529;DHT22;54366;51.980;5.856;2022-12-18T11:44:58;0.70;70.10
67529;DHT22;54366;51.980;5.856;2022-12-18T11:47:44;0.70;70.40
67529;DHT22;54366;51.980;5.856;2022-12-18T11:50:21;0.80;70.20
67529;DHT22;54366;51.980;5.856;2022-12-18T11:52:49;0.80;70.30
67529;DHT22;54366;51.980;5.856;2022-12-18T11:55:46;0.80;69.40
67529;DHT22;54366;51.980;5.856;2022-12-18T11:58:57;0.90;69.30
67529;DHT22;54366;51.980;5.856;2022-12-18T12:01:40;0.90;69.40
67529;DHT22;54366;51.980;5.856;2022-12-18T12:04:45;0.90;69.80
67529;DHT22;54366;51.980;5.856;2022-12-18T12:07:47;0.90;69.70
67529;DHT22;54366;51.980;5.856;2022-12-18T12:10:46;1.00;70.10
67529;DHT22;54366;51.980;5.856;2022-12-18T12:14:01;1.00;69.60
67529;DHT22;54366;51.980;5.856;2022-12-18T12:20:20;1.00;69.20
67529;DHT22;54366;51.980;5.856;2022-12-18T12:23:33;1.00;68.90
67529;DHT22;54366;51.980;5.856;2022-12-18T12:26:08;1.10;68.70
67529;DHT22;54366;51.980;5.856;2022-12-18T12:35:12;1.20;69.10
67529;DHT22;54366;51.980;5.856;2022-12-18T12:41:05;1.20;68.90
67529;DHT22;54366;51.980;5.856;2022-12-18T12:43:53;1.20;69.20
67529;DHT22;54366;51.980;5.856;2022-12-18T12:46:24;1.20;68.80
67529;DHT22;54366;51.980;5.856;2022-12-18T12:48:58;1.20;68.20
67529;DHT22;54366;51.980;5.856;2022-12-18T12:51:33;1.30;68.80
67529;DHT22;54366;51.980;5.856;2022-12-18T12:54:05;1.30;68.00
67529;DHT22;54366;51.980;5.856;2022-12-18T12:56:48;1.20;68.50
67529;DHT22;54366;51.980;5.856;2022-12-18T13:00:23;1.30;69.00
67529;DHT22;54366;51.980;5.856;2022-12-18T13:02:59;1.30;68.30
67529;DHT22;54366;51.980;5.856;2022-12-18T13:05:59;1.30;68.20
67529;DHT22;54366;51.980;5.856;2022-12-18T13:08:31;1.40;68.70
67529;DHT22;54366;51.980;5.856;2022-12-18T13:10:59;1.30;68.50
67529;DHT22;54366;51.980;5.856;2022-12-18T13:13:54;1.40;67.60
67529;DHT22;54366;51.980;5.856;2022-12-18T13:16:23;1.40;67.60
67529;DHT22;54366;51.980;5.856;2022-12-18T13:18:51;1.40;67.80
67529;DHT22;54366;51.980;5.856;2022-12-18T13:21:27;1.40;68.20
67529;DHT22;54366;51.980;5.856;2022-12-18T13:23:55;1.50;68.50
67529;DHT22;54366;51.980;5.856;2022-12-18T13:26:29;1.40;68.40
67529;DHT22;54366;51.980;5.856;2022-12-18T13:28:57;1.50;67.50
67529;DHT22;54366;51.980;5.856;2022-12-18T13:34:27;1.50;68.20
67529;DHT22;54366;51.980;5.856;2022-12-18T13:36:57;1.40;68.10
67529;DHT22;54366;51.980;5.856;2022-12-18T13:39:42;1.50;67.90
67529;DHT22;54366;51.980;5.856;2022-12-18T13:45:43;1.40;67.90
67529;DHT22;54366;51.980;5.856;2022-12-18T13:48:19;1.50;67.40
67529;DHT22;54366;51.980;5.856;2022-12-18T13:50:56;1.50;67.20
67529;DHT22;54366;51.980;5.856;2022-12-18T13:53:27;1.50;67.40
67529;DHT22;54366;51.980;5.856;2022-12-18T13:55:55;1.50;66.50
67529;DHT22;54366;51.980;5.856;2022-12-18T13:58:22;1.50;66.80
67529;DHT22;54366;51.980;5.856;2022-12-18T14:00:48;1.50;66.70
67529;DHT22;54366;51.980;5.856;2022-12-18T14:03:21;1.50;66.90
67529;DHT22;54366;51.980;5.856;2022-12-18T14:06:01;1.50;67.30
67529;DHT22;54366;51.980;5.856;2022-12-18T14:08:33;1.50;67.60
67529;DHT22;54366;51.980;5.856;2022-12-18T14:11:01;1.50;67.60
67529;DHT22;54366;51.980;5.856;2022-12-18T14:13:36;1.50;67.10
67529;DHT22;54366;51.980;5.856;2022-12-18T14:16:04;1.50;67.40
67529;DHT22;54366;51.980;5.856;2022-12-18T14:18:57;1.50;66.50
67529;DHT22;54366;51.980;5.856;2022-12-18T14:21:27;1.50;66.40
67529;DHT22;54366;51.980;5.856;2022-12-18T14:24:18;1.50;66.70
67529;DHT22;54366;51.980;5.856;2022-12-18T14:26:49;1.50;66.30
67529;DHT22;54366;51.980;5.856;2022-12-18T14:29:42;1.50;66.30
67529;DHT22;54366;51.980;5.856;2022-12-18T14:32:17;1.50;65.90
67529;DHT22;54366;51.980;5.856;2022-12-18T14:34:48;1.50;66.20
67529;DHT22;54366;51.980;5.856;2022-12-18T14:37:21;1.50;66.20
67529;DHT22;54366;51.980;5.856;2022-12-18T14:39:59;1.50;66.20
67529;DHT22;54366;51.980;5.856;2022-12-18T14:42:28;1.50;65.90
67529;DHT22;54366;51.980;5.856;2022-12-18T14:47:59;1.50;65.80
67529;DHT22;54366;51.980;5.856;2022-12-18T14:50:26;1.50;66.10
67529;DHT22;54366;51.980;5.856;2022-12-18T14:52:52;1.50;66.10
67529;DHT22;54366;51.980;5.856;2022-12-18T14:55:20;1.50;65.80
67529;DHT22;54366;51.980;5.856;2022-12-18T14:57:53;1.50;65.30
67529;DHT22;54366;51.980;5.856;2022-12-18T15:00:22;1.50;65.80
67529;DHT22;54366;51.980;5.856;2022-12-18T15:02:56;1.50;66.10
67529;DHT22;54366;51.980;5.856;2022-12-18T15:05:30;1.50;65.70
67529;DHT22;54366;51.980;5.856;2022-12-18T15:07:59;1.50;65.40
67529;DHT22;54366;51.980;5.856;2022-12-18T15:10:33;1.50;65.70
67529;DHT22;54366;51.980;5.856;2022-12-18T15:13:15;1.50;66.00
67529;DHT22;54366;51.980;5.856;2022-12-18T15:15:47;1.60;65.70
67529;DHT22;54366;51.980;5.856;2022-12-18T15:18:27;1.50;65.60
67529;DHT22;54366;51.980;5.856;2022-12-18T15:20:57;1.50;65.40
67529;DHT22;54366;51.980;5.856;2022-12-18T15:23:54;1.50;66.00
67529;DHT22;54366;51.980;5.856;2022-12-18T15:26:22;1.50;65.90
67529;DHT22;54366;51.980;5.856;2022-12-18T15:28:53;1.40;65.50
67529;DHT22;54366;51.980;5.856;2022-12-18T15:31:34;1.60;65.80
67529;DHT22;54366;51.980;5.856;2022-12-18T15:34:21;1.50;65.40
67529;DHT22;54366;51.980;5.856;2022-12-18T15:36:50;1.50;65.60
67529;DHT22;54366;51.980;5.856;2022-12-18T15:39:17;1.50;65.90
67529;DHT22;54366;51.980;5.856;2022-12-18T15:41:43;1.50;66.00
67529;DHT22;54366;51.980;5.856;2022-12-18T15:44:30;1.50;66.10
67529;DHT22;54366;51.980;5.856;2022-12-18T15:46:57;1.50;65.70
67529;DHT22;54366;51.980;5.856;2022-12-18T15:49:24;1.50;65.60
67529;DHT22;54366;51.980;5.856;2022-12-18T15:51:52;1.50;65.80
67529;DHT22;54366;51.980;5.856;2022-12-18T15:54:20;1.50;66.10
67529;DHT22;54366;51.980;5.856;2022-12-18T15:57:11;1.50;66.10
67529;DHT22;54366;51.980;5.856;2022-12-18T15:59:54;1.50;65.80
67529;DHT22;54366;51.980;5.856;2022-12-18T16:02:22;1.50;66.10
67529;DHT22;54366;51.980;5.856;2022-12-18T16:04:50;1.50;66.20
67529;DHT22;54366;51.980;5.856;2022-12-18T16:07:17;1.40;66.10
67529;DHT22;54366;51.980;5.856;2022-12-18T16:09:44;1.50;65.70
67529;DHT22;54366;51.980;5.856;2022-12-18T16:12:22;1.50;66.20
67529;DHT22;54366;51.980;5.856;2022-12-18T16:14:50;1.40;66.50
67529;DHT22;54366;51.980;5.856;2022-12-18T16:17:16;1.40;66.70
67529;DHT22;54366;51.980;5.856;2022-12-18T16:19:42;1.50;66.50
67529;DHT22;54366;51.980;5.856;2022-12-18T16:22:18;1.50;66.60
67529;DHT22;54366;51.980;5.856;2022-12-18T16:24:46;1.50;65.90
67529;DHT22;54366;51.980;5.856;2022-12-18T16:27:12;1.40;66.40
67529;DHT22;54366;51.980;5.856;2022-12-18T16:29:38;1.40;65.90
67529;DHT22;54366;51.980;5.856;2022-12-18T16:32:05;1.40;65.90
67529;DHT22;54366;51.980;5.856;2022-12-18T16:34:33;1.40;65.60
67529;DHT22;54366;51.980;5.856;2022-12-18T16:37:05;1.40;66.10
67529;DHT22;54366;51.980;5.856;2022-12-18T16:39:33;1.40;66.30
67529;DHT22;54366;51.980;5.856;2022-12-18T16:42:04;1.40;65.80
67529;DHT22;54366;51.980;5.856;2022-12-18T16:44:30;1.40;66.00
67529;DHT22;54366;51.980;5.856;2022-12-18T16:46:56;1.40;65.50
67529;DHT22;54366;51.980;5.856;2022-12-18T16:49:28;1.40;65.80
67529;DHT22;54366;51.980;5.856;2022-12-18T16:51:54;1.40;65.90
67529;DHT22;54366;51.980;5.856;2022-12-18T16:54:21;1.40;65.90
67529;DHT22;54366;51.980;5.856;2022-12-18T16:56:47;1.40;66.20
67529;DHT22;54366;51.980;5.856;2022-12-18T16:59:15;1.40;66.40